Time;durP1;ratioP1;P1;durP2;ratioP2;P2;SDS_P1;SDS_P2;PMS_P1;PMS_P2;Temp;Humidity;BMP_temperature;BMP_pressure;BME280_temperature;BME280_humidity;BME280_pressure;Samples;Min_cycle;Max_cycle;Signal;HPM_P1;HPM_P2
2021/05/27 00:00:16;;;;;;;0.70;0.60;;;10.70;99.90;;;11.39;100.00;-135.22;5134176;28;20457;-77
2021/05/27 00:02:44;;;;;;;0.70;0.60;;;10.80;99.90;;;11.34;100.00;1368.84;5139466;27;20408;-76
2021/05/27 00:05:13;;;;;;;0.70;0.70;;;10.80;99.90;;;11.34;100.00;2116.19;5136277;28;20431;-76
2021/05/27 00:07:41;;;;;;;0.70;0.60;;;10.80;99.90;;;11.32;100.00;3313.19;5133558;28;20447;-77
2021/05/27 00:10:12;;;;;;;0.70;0.60;;;10.80;99.90;;;11.32;100.00;4546.06;5137781;28;20477;-76
2021/05/27 00:12:40;;;;;;;0.70;0.60;;;10.80;99.90;;;11.51;100.00;4766.09;5156009;27;20419;-76
2021/05/27 00:15:11;;;;;;;0.70;0.60;;;10.80;99.90;;;11.44;100.00;4133.28;5145234;27;20454;-77
2021/05/27 00:17:40;;;;;;;0.70;0.60;;;10.80;99.90;;;11.42;100.00;4823.00;5120611;28;20460;-75
2021/05/27 00:20:10;;;;;;;0.70;0.60;;;10.90;99.90;;;11.64;100.00;4055.03;5136686;27;20468;-76
2021/05/27 00:22:39;;;;;;;0.70;0.63;;;10.90;99.90;;;11.51;100.00;2582.72;5141696;27;20416;-77
2021/05/27 00:25:08;;;;;;;0.70;0.70;;;11.00;99.90;;;11.57;100.00;2679.41;5147442;27;20919;-75
2021/05/27 00:27:40;;;;;;;0.70;0.60;;;11.00;99.90;;;11.53;100.00;1936.22;5153185;28;20916;-76
2021/05/27 00:30:11;;;;;;;0.70;0.70;;;10.90;99.90;;;11.60;100.00;535.22;5152293;28;20421;-76
2021/05/27 00:32:39;;;;;;;0.70;0.60;;;11.00;99.90;;;11.71;100.00;-1574.63;5152191;28;20457;-77
2021/05/27 00:35:09;;;;;;;0.70;0.60;;;11.00;99.90;;;11.67;100.00;-3456.97;5144001;28;20451;-77
2021/05/27 00:37:37;;;;;;;0.70;0.67;;;11.10;99.90;;;11.87;100.00;-4975.31;5145606;28;20456;-77
2021/05/27 00:40:10;;;;;;;0.70;0.67;;;11.00;99.90;;;11.85;100.00;-6745.13;5143299;28;20496;-75
2021/05/27 00:42:38;;;;;;;0.70;0.63;;;11.10;99.90;;;11.77;100.00;-8072.63;5151916;28;20419;-76
2021/05/27 00:45:09;;;;;;;0.70;0.60;;;11.00;99.90;;;11.72;100.00;-7699.53;5152276;27;20401;-75
2021/05/27 00:47:39;;;;;;;0.70;0.60;;;11.00;99.90;;;11.65;100.00;-7422.00;5138400;28;20416;-77
2021/05/27 00:50:20;;;;;;;0.70;0.53;;;11.00;99.90;;;11.72;100.00;-7550.84;5141776;27;20433;-76
2021/05/27 00:52:50;;;;;;;0.70;0.70;;;11.00;99.90;;;11.74;100.00;-9064.78;5142200;27;20467;-76
2021/05/27 00:55:20;;;;;;;0.70;0.70;;;11.10;99.90;;;11.79;100.00;-8370.00;5134561;27;20454;-75
2021/05/27 00:57:49;;;;;;;0.70;0.70;;;11.00;99.90;;;12.02;100.00;-9948.72;5154295;27;20449;-77
2021/05/27 01:00:20;;;;;;;0.70;0.60;;;11.10;99.90;;;11.93;100.00;-11438.38;5130134;27;20427;-77
2021/05/27 01:02:49;;;;;;;0.70;0.60;;;11.10;99.90;;;11.59;100.00;-12093.47;5121113;28;20926;-76
2021/05/27 01:05:18;;;;;;;0.70;0.60;;;11.10;99.90;;;11.72;100.00;-10117.06;5130534;27;20431;-78
2021/05/27 01:07:46;;;;;;;0.70;0.70;;;11.00;99.90;;;11.52;100.00;-9742.63;5113756;28;20553;-77
2021/05/27 01:10:20;;;;;;;0.70;0.60;;;11.10;99.90;;;11.70;100.00;-8913.34;5131996;27;20443;-77
2021/05/27 01:12:47;;;;;;;0.70;0.60;;;11.10;99.90;;;11.72;100.00;-7679.38;5124701;27;20431;-76
2021/05/27 01:18:09;;;;;;;0.70;0.60;;;11.00;99.90;;;11.76;100.00;-9057.38;5141916;27;20467;-77
2021/05/27 01:20:39;;;;;;;0.70;0.70;;;11.10;99.90;;;11.71;100.00;-9623.53;5143790;27;20458;-76
2021/05/27 01:23:09;;;;;;;0.70;0.67;;;11.10;99.90;;;11.58;100.00;-9204.53;5120265;27;20486;-76
2021/05/27 01:25:41;;;;;;;0.70;0.60;;;11.00;99.90;;;11.76;100.00;-8143.13;5118276;28;20445;-75
2021/05/27 01:28:09;;;;;;;0.77;0.70;;;11.10;99.90;;;11.88;100.00;-9554.53;5124850;27;20422;-75
2021/05/27 01:30:37;;;;;;;0.70;0.60;;;11.10;99.90;;;11.71;100.00;-10096.84;5120964;27;20485;-77
2021/05/27 01:33:10;;;;;;;0.70;0.60;;;11.10;99.90;;;11.79;100.00;-9959.09;5121993;27;20447;-75
2021/05/27 01:35:39;;;;;;;0.70;0.67;;;11.10;99.90;;;11.71;100.00;-10449.25;5120865;27;20440;-76
2021/05/27 01:38:13;;;;;;;0.70;0.60;;;11.10;99.90;;;11.73;100.00;-9767.19;5136738;27;20467;-77
2021/05/27 01:40:45;;;;;;;0.70;0.60;;;11.10;99.90;;;11.83;100.00;-9012.63;5136544;27;20847;-75
2021/05/27 01:43:15;;;;;;;0.70;0.60;;;11.00;99.90;;;11.75;100.00;-9190.75;5136823;27;20485;-74
2021/05/27 01:45:44;;;;;;;0.70;0.60;;;11.10;99.90;;;11.76;100.00;-9231.19;5119321;27;20543;-76
2021/05/27 01:48:12;;;;;;;0.70;0.70;;;11.10;99.90;;;11.66;100.00;-9839.53;5136114;27;20433;-75
2021/05/27 01:50:42;;;;;;;0.70;0.60;;;11.10;99.90;;;11.50;100.00;-9551.19;5135557;27;20422;-76
2021/05/27 01:53:12;;;;;;;0.70;0.60;;;11.00;99.90;;;11.45;100.00;-8047.94;5136508;27;20451;-76
2021/05/27 01:55:42;;;;;;;0.70;0.60;;;11.00;99.90;;;11.43;100.00;-5854.09;5113926;28;20506;-76
2021/05/27 01:58:11;;;;;;;0.70;0.60;;;10.90;99.90;;;11.24;100.00;-4306.72;5117543;27;20460;-76
2021/05/27 02:00:40;;;;;;;0.70;0.60;;;10.80;99.90;;;11.37;100.00;-1949.34;5133975;27;20432;-76
2021/05/27 02:03:10;;;;;;;0.70;0.70;;;10.70;99.90;;;11.35;100.00;-630.06;5107472;28;20455;-77
2021/05/27 02:05:39;;;;;;;0.70;0.60;;;10.70;99.90;;;11.22;100.00;953.78;5131226;27;20762;-76
2021/05/27 02:08:12;;;;;;;0.70;0.57;;;10.70;99.90;;;11.49;100.00;3231.75;5115340;28;20486;-77
2021/05/27 02:10:45;;;;;;;0.70;0.60;;;10.70;99.90;;;11.35;100.00;3550.97;5116299;28;20408;-74
2021/05/27 02:13:13;;;;;;;0.70;0.60;;;10.70;99.90;;;11.28;100.00;5146.97;5132910;27;20848;-78
2021/05/27 02:15:43;;;;;;;0.70;0.60;;;10.70;99.90;;;11.54;100.00;6304.06;5115104;27;20793;-76
2021/05/27 02:18:11;;;;;;;0.70;0.63;;;10.70;99.90;;;11.40;100.00;5399.03;5115807;28;20453;-77
2021/05/27 02:20:39;;;;;;;0.70;0.60;;;10.70;99.90;;;11.33;100.00;6654.47;5116395;28;20421;-77
2021/05/27 02:23:08;;;;;;;0.70;0.60;;;10.70;99.90;;;11.46;100.00;8103.78;5117782;28;20836;-76
2021/05/27 02:25:45;;;;;;;0.70;0.60;;;10.80;99.90;;;11.49;100.00;8299.16;5135902;27;20500;-75
2021/05/27 02:28:39;;;;;;;0.70;0.60;;;10.80;99.90;;;11.56;100.00;8662.59;5113954;27;20435;-76
2021/05/27 02:31:09;;;;;;;0.70;0.60;;;10.80;99.90;;;11.51;100.00;9410.81;5117083;27;20462;-77
2021/05/27 02:33:44;;;;;;;0.70;0.57;;;10.80;99.90;;;11.56;100.00;9568.91;5114134;27;20463;-76
2021/05/27 02:36:24;;;;;;;0.70;0.70;;;10.90;99.90;;;11.74;100.00;7395.41;5141346;27;20464;-74
2021/05/27 02:38:55;;;;;;;0.70;0.60;;;10.90;99.90;;;11.59;100.00;7078.94;5118381;27;20470;-78
2021/05/27 02:41:24;;;;;;;0.70;0.70;;;10.90;99.90;;;11.53;100.00;7847.09;5136793;27;20411;-75
2021/05/27 02:43:54;;;;;;;0.70;0.60;;;10.90;99.90;;;11.69;100.00;8381.69;5133631;27;20473;-77
2021/05/27 02:46:28;;;;;;;0.70;0.70;;;10.90;99.90;;;11.69;100.00;7882.94;5129074;27;20792;-77
2021/05/27 02:48:57;;;;;;;0.70;0.60;;;10.90;99.90;;;11.64;100.00;6836.94;5114159;27;20437;-75
2021/05/27 02:51:25;;;;;;;0.70;0.63;;;10.90;99.90;;;11.58;100.00;8475.63;5143139;27;20462;-75
2021/05/27 02:53:53;;;;;;;0.70;0.60;;;10.90;99.90;;;11.75;100.00;8565.09;5141087;27;20455;-76
2021/05/27 02:56:21;;;;;;;0.70;0.60;;;10.90;99.90;;;11.60;100.00;8602.69;5116689;28;20440;-75
2021/05/27 02:58:56;;;;;;;0.70;0.60;;;10.90;99.90;;;11.85;100.00;7567.09;5126007;27;20466;-77
2021/05/27 03:01:24;;;;;;;0.70;0.70;;;11.00;99.90;;;11.69;100.00;6721.38;5121201;27;20569;-75
2021/05/27 03:03:54;;;;;;;0.70;0.60;;;11.00;99.90;;;11.84;100.00;7802.44;5134833;27;20455;-76
2021/05/27 03:06:22;;;;;;;0.70;0.60;;;10.90;99.90;;;11.93;100.00;5720.84;5123291;28;20790;-76
2021/05/27 03:08:52;;;;;;;0.70;0.70;;;11.00;99.90;;;11.80;100.00;4729.78;5123887;28;20454;-74
2021/05/27 03:11:21;;;;;;;0.70;0.60;;;10.90;99.90;;;11.82;100.00;5595.25;5137100;27;20439;-76
2021/05/27 03:13:58;;;;;;;0.70;0.60;;;10.90;99.90;;;11.85;100.00;4776.03;5141736;27;20421;-75
2021/05/27 03:16:36;;;;;;;1.67;1.10;;;10.90;99.90;;;11.81;100.00;4355.63;5154397;27;20443;-76
2021/05/27 03:19:04;;;;;;;0.70;0.60;;;10.90;99.90;;;11.71;100.00;3327.84;5103354;27;20471;-75
2021/05/27 03:21:32;;;;;;;0.70;0.67;;;11.00;99.90;;;11.74;100.00;4546.91;5146089;27;20442;-76
2021/05/27 03:24:00;;;;;;;0.70;0.60;;;10.90;99.90;;;11.64;100.00;6131.06;5142116;27;20444;-76
2021/05/27 03:26:27;;;;;;;0.73;0.70;;;10.90;99.90;;;11.76;100.00;4860.72;5141171;27;20463;-76
2021/05/27 03:28:56;;;;;;;0.70;0.60;;;11.00;99.90;;;11.63;100.00;4646.47;5144437;27;20441;-75
2021/05/27 03:31:25;;;;;;;0.80;0.80;;;10.90;99.90;;;11.82;100.00;6678.22;5146467;27;20443;-76
2021/05/27 03:33:54;;;;;;;0.70;0.60;;;10.90;99.90;;;11.68;100.00;5747.22;5131588;27;20916;-75
2021/05/27 03:36:22;;;;;;;0.70;0.70;;;10.90;99.90;;;11.74;100.00;6914.56;5146364;27;20429;-76
2021/05/27 03:38:51;;;;;;;0.70;0.60;;;10.90;99.90;;;11.59;100.00;7716.66;5141717;27;20469;-75
2021/05/27 03:41:20;;;;;;;0.70;0.60;;;10.90;99.90;;;11.52;100.00;10223.78;5142221;27;20432;-75
2021/05/27 03:43:48;;;;;;;0.80;0.70;;;10.80;99.90;;;11.50;100.00;14249.31;5123611;27;20441;-74
2021/05/27 03:46:18;;;;;;;0.70;0.60;;;10.80;99.90;;;11.56;100.00;17531.09;5142594;27;20505;-75
2021/05/27 03:48:47;;;;;;;0.70;0.60;;;10.70;99.90;;;11.49;100.00;19135.34;5144827;27;20432;-74
2021/05/27 03:51:15;;;;;;;0.70;0.60;;;10.70;99.90;;;11.28;100.00;22143.88;5142061;27;20439;-75
2021/05/27 03:53:42;;;;;;;0.70;0.70;;;10.60;99.90;;;11.41;100.00;24294.69;5134292;27;20463;-74
2021/05/27 03:56:10;;;;;;;0.70;0.60;;;10.70;99.90;;;11.41;100.00;27367.47;5102025;28;20430;-74
2021/05/27 04:01:31;;;;;;;0.70;0.70;;;10.70;99.90;;;11.44;100.00;29716.06;5129904;27;20433;-75
2021/05/27 04:07:11;;;;;;;0.70;0.60;;;10.70;99.90;;;11.52;100.00;32202.31;5144673;27;20404;-74
2021/05/27 04:09:39;;;;;;;0.70;0.67;;;10.70;99.90;;;11.67;100.00;31150.53;5139817;27;20460;-76
2021/05/27 04:17:45;;;;;;;0.70;0.60;;;10.70;99.90;;;11.53;100.00;31581.31;5115050;28;20468;-75
2021/05/27 04:20:13;;;;;;;0.70;0.67;;;10.70;99.90;;;11.49;100.00;31640.13;5115394;28;20411;-76
2021/05/27 04:22:43;;;;;;;0.70;0.70;;;10.80;99.90;;;11.71;100.00;30903.34;5117306;28;20426;-75
2021/05/27 04:25:13;;;;;;;0.70;0.60;;;10.80;99.90;;;11.68;100.00;31207.47;5118938;28;20901;-75
2021/05/27 04:27:42;;;;;;;0.70;0.60;;;10.80;99.90;;;11.58;100.00;30768.72;5130971;28;20444;-75
2021/05/27 04:30:13;;;;;;;0.70;0.60;;;10.80;99.90;;;11.75;100.00;30803.41;5120545;28;20433;-74
2021/05/27 04:32:54;;;;;;;0.70;0.50;;;10.80;99.90;;;11.63;100.00;27574.38;5130210;28;20425;-75
2021/05/27 04:35:44;;;;;;;0.70;0.70;;;10.90;99.90;;;11.67;100.00;25909.22;5138388;28;20430;-77
2021/05/27 04:38:14;;;;;;;0.70;0.70;;;10.90;99.90;;;11.67;100.00;25644.81;5115782;28;21061;-75
2021/05/27 04:40:45;;;;;;;0.70;0.70;;;10.90;99.90;;;11.72;100.00;24960.00;5140995;27;20413;-75
2021/05/27 04:43:13;;;;;;;0.70;0.60;;;10.90;99.90;;;11.67;100.00;24248.09;5124035;28;20441;-75
2021/05/27 04:45:41;;;;;;;0.70;0.70;;;10.90;99.90;;;11.74;100.00;24436.84;5131997;28;20425;-76
2021/05/27 04:48:12;;;;;;;0.70;0.60;;;10.90;99.90;;;11.74;100.00;24744.69;5124929;28;20444;-75
2021/05/27 04:50:41;;;;;;;0.70;0.60;;;10.90;99.90;;;11.47;100.00;25925.25;5135127;28;20425;-75
2021/05/27 04:53:10;;;;;;;0.70;0.60;;;10.80;99.90;;;11.61;100.00;27194.56;5124140;28;20806;-76
2021/05/27 04:55:37;;;;;;;0.70;0.60;;;10.80;99.90;;;11.62;100.00;26359.97;5135646;28;20435;-75
2021/05/27 04:58:05;;;;;;;1.20;1.10;;;10.80;99.90;;;11.53;100.00;26783.22;5126059;28;20463;-76
2021/05/27 05:00:33;;;;;;;0.70;0.67;;;10.80;99.90;;;11.64;100.00;28209.19;5118871;28;20446;-76
2021/05/27 05:03:01;;;;;;;0.70;0.60;;;10.80;99.90;;;11.41;100.00;28639.88;5126965;28;20562;-75
2021/05/27 05:05:33;;;;;;;0.70;0.63;;;10.80;99.90;;;11.57;100.00;28500.81;5147191;28;20406;-76
2021/05/27 05:08:01;;;;;;;0.70;0.60;;;10.80;99.90;;;11.47;100.00;29239.22;5139634;27;20461;-76
2021/05/27 05:10:31;;;;;;;0.70;0.60;;;10.80;99.90;;;11.54;100.00;30073.16;5157643;27;20423;-75
2021/05/27 05:12:59;;;;;;;0.70;0.70;;;10.80;99.90;;;11.70;100.00;29246.22;5123547;28;20441;-75
2021/05/27 05:15:31;;;;;;;0.70;0.70;;;10.90;99.90;;;11.45;100.00;27374.63;5130569;28;20433;-76
2021/05/27 05:18:01;;;;;;;0.70;0.60;;;10.90;99.90;;;11.52;100.00;27474.97;5119995;28;20852;-76
2021/05/27 05:20:32;;;;;;;0.70;0.60;;;10.90;99.90;;;11.55;100.00;27894.03;5154441;27;20423;-75
2021/05/27 05:23:00;;;;;;;0.70;0.60;;;10.90;99.90;;;11.52;100.00;27897.53;5120791;28;20448;-76
2021/05/27 05:25:31;;;;;;;0.70;0.60;;;10.90;99.90;;;11.29;100.00;27798.91;5116525;28;20473;-76
2021/05/27 05:27:59;;;;;;;0.70;0.60;;;10.80;99.90;;;11.36;100.00;32101.31;5138012;28;20424;-75
2021/05/27 05:30:28;;;;;;;0.70;0.60;;;10.80;99.90;;;11.24;100.00;32573.16;5115970;28;20438;-75
2021/05/27 05:32:58;;;;;;;0.70;0.60;;;10.80;99.90;;;11.32;100.00;34339.47;5125884;28;20549;-75
2021/05/27 05:35:28;;;;;;;0.70;0.60;;;10.80;99.90;;;11.34;100.00;35899.06;5112664;28;20406;-75
2021/05/27 05:37:57;;;;;;;0.70;0.70;;;10.80;99.90;;;11.44;100.00;37807.09;5116839;28;20438;-74
2021/05/27 05:40:27;;;;;;;0.70;0.60;;;10.80;99.90;;;11.40;100.00;36599.28;5127674;27;20419;-77
2021/05/27 05:42:56;;;;;;;0.70;0.60;;;10.80;99.90;;;11.51;100.00;37104.75;5117169;28;20894;-77
2021/05/27 05:45:26;;;;;;;0.70;0.70;;;10.80;99.90;;;11.54;100.00;37504.72;5098955;28;20463;-77
2021/05/27 05:47:58;;;;;;;0.70;0.60;;;10.80;99.90;;;11.34;100.00;38377.09;5117200;28;20430;-75
2021/05/27 05:53:15;;;;;;;0.70;0.60;;;10.80;99.90;;;11.32;100.00;39578.31;5117861;27;20460;-76
2021/05/27 05:55:43;;;;;;;0.70;0.60;;;10.70;99.90;;;11.33;100.00;40442.34;5115355;28;20980;-74
2021/05/27 05:58:12;;;;;;;0.70;0.60;;;10.70;99.90;;;11.58;100.00;40409.25;5115638;28;20497;-74
2021/05/27 06:00:40;;;;;;;0.70;0.60;;;10.70;99.90;;;11.39;100.00;39562.94;5133188;27;20931;-76
2021/05/27 06:03:08;;;;;;;0.70;0.70;;;10.60;99.90;;;11.20;100.00;41056.00;5127910;27;20441;-76
2021/05/27 06:06:04;;;;;;;0.70;0.67;;;10.60;99.90;;;11.26;100.00;40882.03;5084017;27;20439;-78
2021/05/27 06:09:05;;;;;;;1.10;1.00;;;10.50;99.90;;;11.29;100.00;39522.88;5128101;27;20479;-76
2021/05/27 06:11:32;;;;;;;0.70;0.60;;;10.50;99.90;;;11.19;100.00;38874.88;5117343;28;20440;-80
2021/05/27 06:14:01;;;;;;;0.70;0.60;;;10.50;99.90;;;11.27;100.00;37565.97;5115889;28;20532;-82
2021/05/27 06:16:29;;;;;;;0.70;0.70;;;10.50;99.90;;;11.31;100.00;36124.13;5098167;28;20461;-82
2021/05/27 06:18:57;;;;;;;0.70;0.60;;;10.50;99.90;;;11.29;100.00;35217.31;5114200;28;20471;-80
2021/05/27 06:21:33;;;;;;;0.70;0.60;;;10.50;99.90;;;11.16;100.00;33169.66;5129920;27;20539;-81
2021/05/27 06:24:09;;;;;;;0.70;0.70;;;10.60;99.90;;;11.14;100.00;31999.31;5135159;27;20460;-81
2021/05/27 06:26:37;;;;;;;0.70;0.70;;;10.50;99.90;;;11.09;100.00;30400.00;5118214;27;20518;-78
2021/05/27 06:29:07;;;;;;;0.70;0.63;;;10.50;99.90;;;11.09;100.00;28491.13;5118511;27;20442;-81
2021/05/27 06:31:34;;;;;;;0.70;0.60;;;10.50;99.90;;;11.28;100.00;27439.59;5136327;27;20862;-79
2021/05/27 06:34:03;;;;;;;0.70;0.60;;;10.50;99.90;;;11.27;100.00;26317.47;5102650;28;20437;-82
2021/05/27 06:36:32;;;;;;;0.70;0.50;;;10.50;99.90;;;11.24;100.00;24312.38;5097336;28;20417;-81
2021/05/27 06:39:02;;;;;;;0.70;0.60;;;10.50;99.90;;;11.11;100.00;23694.13;5097898;28;21051;-78
2021/05/27 06:41:30;;;;;;;0.70;0.60;;;10.50;99.90;;;11.12;100.00;22447.25;5115742;28;20962;-82
2021/05/27 06:43:59;;;;;;;0.70;0.70;;;10.40;99.90;;;11.08;100.00;21216.25;5115376;27;20449;-83
2021/05/27 06:46:28;;;;;;;0.70;0.60;;;10.40;99.90;;;11.08;100.00;19373.59;5097145;28;20504;-82
2021/05/27 06:48:56;;;;;;;0.70;0.50;;;10.40;99.90;;;11.26;100.00;17269.28;5115938;27;20817;-82
2021/05/27 06:51:24;;;;;;;0.70;0.60;;;10.40;99.90;;;11.27;100.00;15443.81;5114285;28;20467;-83
2021/05/27 06:53:52;;;;;;;0.70;0.60;;;10.40;99.90;;;11.24;100.00;13673.88;5115018;28;20496;-85
2021/05/27 06:56:22;;;;;;;0.70;0.63;;;10.40;99.90;;;11.17;100.00;11714.09;5116417;27;20438;-83
2021/05/27 06:58:51;;;;;;;0.70;0.60;;;10.40;99.90;;;11.21;100.00;10365.91;5114665;28;20467;-82
2021/05/27 07:01:18;;;;;;;0.70;0.70;;;10.40;99.90;;;11.32;100.00;8875.19;5096793;28;20444;-83
2021/05/27 07:03:47;;;;;;;0.70;0.60;;;10.40;99.90;;;11.28;100.00;7391.97;5129573;27;20440;-83
2021/05/27 07:06:16;;;;;;;0.70;0.60;;;10.40;99.90;;;11.40;100.00;5709.91;5135778;27;20515;-85
2021/05/27 07:08:43;;;;;;;0.70;0.70;;;10.40;99.90;;;11.37;100.00;3940.38;5134451;27;20455;-83
2021/05/27 07:11:11;;;;;;;0.73;0.73;;;10.40;99.90;;;11.52;100.00;3032.56;5133010;27;20425;-83
2021/05/27 07:13:39;;;;;;;0.70;0.60;;;10.50;99.90;;;11.44;100.00;1960.56;5135165;27;20895;-82
2021/05/27 07:16:07;;;;;;;0.70;0.70;;;10.50;99.90;;;11.48;100.00;784.25;5116489;27;20449;-83
2021/05/27 07:18:35;;;;;;;0.70;0.60;;;10.50;99.90;;;11.68;100.00;-85.44;5134906;27;20458;-80
2021/05/27 07:21:05;;;;;;;0.70;0.60;;;10.50;99.90;;;11.51;100.00;-1234.81;5117224;27;20438;-79
2021/05/27 07:23:33;;;;;;;0.70;0.60;;;10.60;99.90;;;11.71;100.00;-2528.53;5116128;27;20492;-83
2021/05/27 07:26:02;;;;;;;0.70;0.60;;;10.60;99.90;;;11.60;100.00;-3608.34;5133509;27;20448;-81
2021/05/27 07:28:30;;;;;;;0.70;0.60;;;10.70;99.90;;;11.75;100.00;-4811.25;5117307;27;20462;-83
2021/05/27 07:30:59;;;;;;;0.70;0.70;;;10.70;99.90;;;11.56;100.00;-7396.38;5116076;27;20462;-81
2021/05/27 07:33:27;;;;;;;0.70;0.60;;;10.80;99.90;;;11.56;100.00;-10659.13;5134466;27;20952;-80
2021/05/27 07:35:55;;;;;;;0.70;0.63;;;10.70;99.90;;;11.51;100.00;-12429.41;5117003;27;20435;-84
2021/05/27 07:38:23;;;;;;;0.70;0.70;;;10.60;99.90;;;11.57;100.00;-13752.84;5114864;27;20578;-83
2021/05/27 07:40:51;;;;;;;0.70;0.70;;;10.60;99.90;;;11.48;100.00;-14892.38;5113085;28;20438;-83
2021/05/27 07:43:19;;;;;;;0.70;0.70;;;10.60;99.90;;;11.62;100.00;-15533.06;5113367;28;20429;-81
2021/05/27 07:45:47;;;;;;;0.70;0.70;;;10.60;99.90;;;11.57;100.00;-16202.91;5113746;27;20952;-80
2021/05/27 07:48:15;;;;;;;0.70;0.60;;;10.60;99.90;;;11.58;100.00;-16939.16;5113957;27;20447;-82
2021/05/27 07:50:43;;;;;;;0.80;0.73;;;10.70;99.90;;;11.84;100.00;-17728.25;5112970;28;20894;-80
2021/05/27 07:53:15;;;;;;;0.70;0.67;;;10.70;99.90;;;11.79;100.00;-18144.06;5095942;28;20519;-81
2021/05/27 07:55:45;;;;;;;0.70;0.70;;;10.70;99.90;;;11.78;100.00;-18535.56;5127791;27;20895;-80
2021/05/27 07:58:13;;;;;;;0.70;0.70;;;10.50;99.90;;;11.81;100.00;-18232.41;5115990;28;20467;-82
2021/05/27 08:00:41;;;;;;;0.70;0.70;;;10.60;99.90;;;11.81;100.00;-18385.59;5128420;27;20470;-80
2021/05/27 08:03:09;;;;;;;0.70;0.70;;;10.70;99.90;;;12.00;100.00;-18500.47;5129573;27;20451;-81
2021/05/27 08:05:36;;;;;;;0.70;0.63;;;10.60;99.90;;;12.06;100.00;-18155.28;5112631;28;20446;-82
2021/05/27 08:08:05;;;;;;;0.70;0.70;;;10.80;99.90;;;12.24;100.00;-17852.66;5112460;28;20574;-81
2021/05/27 08:10:33;;;;;;;0.70;0.70;;;10.90;99.90;;;12.16;100.00;-17896.00;5115466;27;20465;-79
2021/05/27 08:13:02;;;;;;;0.80;0.70;;;10.80;99.90;;;12.19;100.00;-17605.22;5113544;27;20437;-82
2021/05/27 08:15:30;;;;;;;0.70;0.60;;;10.80;99.90;;;12.11;100.00;-17384.81;5117628;28;20423;-80
2021/05/27 08:17:58;;;;;;;0.70;0.60;;;10.80;99.90;;;12.08;100.00;-16954.50;5132351;27;20509;-78
2021/05/27 08:20:26;;;;;;;0.70;0.60;;;10.80;99.90;;;11.79;100.00;-16888.09;5131176;27;20565;-84
2021/05/27 08:22:54;;;;;;;0.70;0.60;;;10.70;99.90;;;11.76;100.00;-16766.88;5116048;28;20466;-77
2021/05/27 08:25:42;;;;;;;0.70;0.60;;;10.60;99.90;;;11.79;100.00;-16486.09;5113804;28;20488;-78
2021/05/27 08:28:10;;;;;;;0.70;0.70;;;10.60;99.90;;;11.75;100.00;-16435.03;5112203;28;20435;-78
2021/05/27 08:30:39;;;;;;;0.70;0.60;;;10.50;99.90;;;11.83;100.00;-15944.09;5112568;28;20441;-79
2021/05/27 08:33:10;;;;;;;0.70;0.60;;;10.60;99.90;;;11.81;100.00;-15704.94;5122693;28;20470;-79
2021/05/27 08:35:38;;;;;;;0.70;0.60;;;10.70;99.90;;;11.94;100.00;-15669.69;5133029;28;20439;-78
2021/05/27 08:38:05;;;;;;;0.70;0.60;;;10.70;99.90;;;11.94;100.00;-15036.13;5133901;27;20447;-82
2021/05/27 08:40:36;;;;;;;0.70;0.60;;;10.80;99.90;;;12.07;100.00;-14470.00;5130823;28;20904;-78
2021/05/27 08:43:06;;;;;;;0.70;0.60;;;10.80;99.90;;;12.15;100.00;-13867.44;5115804;28;20469;-82
2021/05/27 08:45:37;;;;;;;0.70;0.60;;;10.90;99.90;;;12.28;100.00;-13449.13;5132799;28;20425;-78
2021/05/27 08:48:10;;;;;;;0.70;0.60;;;11.00;99.90;;;12.51;100.00;-12654.34;5133816;27;20437;-81
2021/05/27 08:50:44;;;;;;;0.70;0.60;;;11.20;99.90;;;12.77;100.00;-11889.25;5116220;28;20489;-78
2021/05/27 08:53:13;;;;;;;0.70;0.60;;;11.20;99.90;;;12.79;100.00;-11130.81;5127171;27;20458;-77
2021/05/27 08:55:42;;;;;;;0.70;0.63;;;11.20;99.90;;;12.81;100.00;-10062.03;5129261;28;20423;-82
2021/05/27 08:58:10;;;;;;;0.70;0.60;;;11.40;99.90;;;12.73;100.00;-9614.88;5094975;28;20437;-79
2021/05/27 09:00:39;;;;;;;0.70;0.60;;;11.40;99.90;;;12.60;100.00;-9200.19;5113576;28;20461;-80
2021/05/27 09:03:09;;;;;;;0.70;0.60;;;11.10;99.90;;;12.55;100.00;-8291.97;5121576;28;20449;-78
2021/05/27 09:06:00;;;;;;;0.80;0.80;;;11.20;99.90;;;12.58;100.00;-6811.28;5132403;28;20977;-78
2021/05/27 09:08:30;;;;;;;0.80;0.70;;;11.30;99.90;;;12.66;100.00;-6072.09;5127881;28;20553;-77
2021/05/27 09:11:03;;;;;;;0.70;0.60;;;11.30;99.90;;;12.75;100.00;-5277.03;5115054;28;20779;-82
2021/05/27 09:13:32;;;;;;;0.70;0.60;;;11.30;99.90;;;12.64;100.00;-5236.44;5099021;28;20492;-78
2021/05/27 09:16:09;;;;;;;0.70;0.70;;;11.20;99.90;;;12.55;100.00;-3996.53;5115311;28;20560;-80
2021/05/27 09:18:38;;;;;;;0.70;0.67;;;11.20;99.90;;;12.40;100.00;-3675.88;5115781;28;20425;-78
2021/05/27 09:21:09;;;;;;;0.70;0.60;;;11.20;99.90;;;12.23;100.00;-3580.09;5116046;27;20465;-84
2021/05/27 09:23:45;;;;;;;0.70;0.60;;;11.00;99.90;;;12.06;100.00;-2817.97;5119257;27;20493;-81
2021/05/27 09:26:16;;;;;;;0.70;0.60;;;11.00;99.90;;;11.95;100.00;-2601.13;5119215;27;20454;-80
2021/05/27 09:28:46;;;;;;;0.70;0.60;;;10.90;99.90;;;11.87;100.00;-2066.25;5135755;27;20502;-76
2021/05/27 09:31:18;;;;;;;0.73;0.70;;;10.90;99.90;;;11.74;100.00;-3154.19;5137319;27;20416;-79
2021/05/27 09:33:48;;;;;;;0.70;0.70;;;10.80;99.90;;;11.75;100.00;-2127.22;5118788;27;20432;-80
2021/05/27 09:36:18;;;;;;;0.70;0.70;;;10.80;99.90;;;11.78;100.00;-2389.56;5126495;27;20448;-78
2021/05/27 09:38:52;;;;;;;0.73;0.70;;;10.70;99.90;;;11.73;100.00;-2682.41;5115017;27;20467;-78
2021/05/27 09:41:23;;;;;;;0.70;0.67;;;10.70;99.90;;;11.74;100.00;-2894.31;5115497;28;20436;-79
2021/05/27 09:43:54;;;;;;;0.70;0.70;;;10.70;99.90;;;11.70;100.00;-3323.25;5131422;27;20436;-79
2021/05/27 09:46:24;;;;;;;0.70;0.60;;;10.70;99.90;;;11.69;100.00;-3514.97;5118871;27;20430;-77
2021/05/27 09:49:05;;;;;;;0.70;0.70;;;10.70;99.90;;;11.64;100.00;-3850.44;5135649;27;20499;-78
2021/05/27 09:51:32;;;;;;;0.70;0.67;;;10.80;99.90;;;11.76;100.00;-4513.69;5132550;27;20444;-79
2021/05/27 09:54:01;;;;;;;1.00;0.90;;;10.70;99.90;;;11.78;100.00;-4992.84;5136044;27;20952;-80
2021/05/27 09:56:33;;;;;;;0.70;0.60;;;10.70;99.90;;;11.64;100.00;-5436.28;5134721;27;20444;-80
2021/05/27 09:59:09;;;;;;;0.70;0.60;;;10.70;99.90;;;11.65;100.00;-6066.41;5115886;28;20773;-78
2021/05/27 10:01:39;;;;;;;0.70;0.60;;;10.80;99.90;;;11.69;100.00;-7074.53;5128850;27;20525;-79
2021/05/27 10:04:12;;;;;;;0.70;0.60;;;10.90;99.90;;;11.54;100.00;-8539.56;5116593;27;20464;-80
2021/05/27 10:06:40;;;;;;;0.70;0.60;;;10.70;99.90;;;11.67;100.00;-9187.56;5133250;27;20422;-81
2021/05/27 10:09:09;;;;;;;0.70;0.60;;;10.70;99.90;;;11.67;100.00;-9376.41;5120587;27;20453;-79
2021/05/27 10:11:41;;;;;;;0.70;0.60;;;10.70;99.90;;;11.72;100.00;-9432.25;5116964;27;20985;-79
2021/05/27 10:14:10;;;;;;;0.70;0.60;;;10.70;99.90;;;11.74;100.00;-9241.03;5135244;27;20431;-76
2021/05/27 10:16:39;;;;;;;0.80;0.70;;;10.70;99.90;;;11.69;100.00;-9223.03;5118311;27;20453;-79
2021/05/27 10:19:07;;;;;;;0.70;0.70;;;10.70;99.90;;;11.62;100.00;-9401.19;5134445;27;20446;-79
2021/05/27 10:21:38;;;;;;;0.70;0.60;;;10.90;99.90;;;11.67;100.00;-10300.28;5117508;27;20440;-77
2021/05/27 10:24:08;;;;;;;0.70;0.60;;;10.70;99.90;;;11.69;100.00;-10504.34;5133726;27;20445;-80
2021/05/27 10:26:36;;;;;;;0.70;0.70;;;10.60;99.90;;;11.70;100.00;-10469.28;5118073;27;20440;-78
2021/05/27 10:29:23;;;;;;;0.70;0.60;;;10.70;99.90;;;11.57;100.00;-10281.75;5135904;27;20881;-79
2021/05/27 10:31:53;;;;;;;0.70;0.70;;;10.70;99.90;;;11.56;100.00;-10900.66;5113782;28;20429;-80
2021/05/27 10:34:47;;;;;;;0.70;0.60;;;10.70;99.90;;;11.55;100.00;-10960.94;5097448;28;20466;-79
2021/05/27 10:37:37;;;;;;;0.70;0.60;;;10.70;99.90;;;11.57;100.00;-11575.03;5108003;27;20971;-79
2021/05/27 10:40:48;;;;;;;0.80;0.80;;;10.80;99.90;;;11.74;100.00;-12699.13;5111824;28;21006;-78
2021/05/27 10:43:17;;;;;;;0.70;0.60;;;10.80;99.90;;;11.77;100.00;-13026.50;5115493;28;20410;-78